Accueil
METAR-TAF:

METAR-TAF

Aéroports :

Hunter Army Airfield / Fort Stewart

Savannah, Géorgie, États-Unis

latitude: 32-01N, longitude: 081-09W, altitude: 13 m

Observation

Le bulletin a été fait il y a 1 heure et 1 minutes, à 11:56 UTC
Vent 8 kt de nord/nord-est
Température 14°C
Humidité 77%
Pression 1014 hPa
Visibilité: 16.1 km
Nuages épars à une hauteur de 15000 ft

METAR: KSVN 041156Z AUTO 02008KT 10SM SCT150 14/10 A2994 RMK AO2 SLP142 T01370097 10137 20115 53014 $

Heure: 08:57 (12:57 UTC)

Prévision

Le bulletin a été fait il y a 57 minutes, à 12:00 UTC
Prévision valable du 04 à 12 UTC au 05 à 18 UTC
Vent 6 kt de direction variable
Visibilité 10 km ou plus
Nuages épars à une hauteur de 13000 ft

TAF: KSVN 041200Z 0412/0518 VRB06KT 9999 SCT130 QNH2988INS TX21/0422Z TN12/0412Z

Observations et prévisions météorologiques de plus de 4000 aéroports (messages METAR et TAF).

Les stations disponibles sont représentées par des disques jaunes et rouges sur la carte.

Passer la souris dessus pour voir le nom de la station.

Cliquer dessus pour voir les observations et prévisions météorologiques.

Pour changer de carte: cliquez sur les boutons verts avec une croix noire pour zoomer, sur le bouton vert avec un tiret pour effectuer un zoom arrière, ou sur les flèches vertes pour les cartes adjacentes.


METAR-TAF: